Etusivu
METAR-TAF:

METAR-TAF

Lentoasemat :

Lake Charles, Louisiana, Yhdysvallat

Leveyspiiri: 30-07-34N, Pituuspiiri: 093-13-24W, korkeus merenpinnasta: 5 m

Tämänhetkinen sää

Tämä raportti tehtiin 18 minuuttia sitten, kello 08.53 UTC
Tuuli 5 kn pohjoisen/luoteesta
Lämpötila 20°C
Kosteus 100%
Ilmanpaine 1015 hPa
Näkyvyys: 16.1 km
selkeää

METAR: KLCH 290853Z AUTO 33005KT 10SM CLR 20/20 A2997 RMK AO2 SLP156 T02000200 55010 $

Aika: 04:11 (09:11 UTC)

Sääennuste

Tämä raportti tehtiin 3 tuntia ja 51 minuuttia sitten, kello 05.20 UTC
Ennuste voimassa 29. päivästä klo 06 UTC - 30. päivään klo 06 UTC
Tuuli 5 kn eri suunnista
Näkyvyys: 10 km
Hajanaisia pilviä 25000 ft:n korkeudessa
From 29. päivästä klo 1500 UTC
Tuuli 7 kn pohjoisesta
Näkyvyys: 10 km
Hajanaisia pilviä 25000 ft:n korkeudessa

TAF: KLCH 290520Z 2906/3006 VRB05KT P6SM SCT250 FM291500 01007KT P6SM SCT250

Säähavainnot ja -ennusteet yli 4000 lentoasemalta (METAR- ja TAF-raportit).

Käytössä olevat sääasemat on merkitty karttaan keltaisilla ja punaisilla pisteillä.

Aseta hiiri pisteen päälle nähdäksesi sääaseman nimen.

Klikkaa sitten nähdäksesi säähavainnot ja -ennusteet.

Kartan vaihtaminen: klikkaa mustalla rastilla varustettuja vihreitä pisteitä, niin voit zoomata sisään; viivalla varustettua vihreää pistettä, niin voit zoomata ulos tai vihreitä nuolia, niin pääset viereisille kartoille.


METAR-TAF: